sensor_id;sensor_type;location;lat;lon;timestamp;P1;durP1;ratioP1;P2;durP2;ratioP2
10442;SDS011;5269;51.146;16.986;2023-02-01T00:01:22;2.40;;;0.90;;
10442;SDS011;5269;51.146;16.986;2023-02-01T00:03:51;1.60;;;0.60;;
10442;SDS011;5269;51.146;16.986;2023-02-01T00:06:18;4.10;;;0.77;;
10442;SDS011;5269;51.146;16.986;2023-02-01T00:08:45;1.25;;;0.98;;
10442;SDS011;5269;51.146;16.986;2023-02-01T00:11:12;1.63;;;0.90;;
10442;SDS011;5269;51.146;16.986;2023-02-01T00:13:41;2.27;;;1.07;;
10442;SDS011;5269;51.146;16.986;2023-02-01T00:16:09;5.60;;;1.00;;
10442;SDS011;5269;51.146;16.986;2023-02-01T00:18:38;3.17;;;1.10;;
10442;SDS011;5269;51.146;16.986;2023-02-01T00:21:05;3.73;;;1.00;;
10442;SDS011;5269;51.146;16.986;2023-02-01T00:23:32;1.10;;;0.80;;
10442;SDS011;5269;51.146;16.986;2023-02-01T00:26:00;3.83;;;1.00;;
10442;SDS011;5269;51.146;16.986;2023-02-01T00:28:27;2.40;;;1.10;;
10442;SDS011;5269;51.146;16.986;2023-02-01T00:30:58;2.67;;;1.30;;
10442;SDS011;5269;51.146;16.986;2023-02-01T00:33:26;2.40;;;0.90;;
10442;SDS011;5269;51.146;16.986;2023-02-01T00:35:55;2.93;;;1.20;;
10442;SDS011;5269;51.146;16.986;2023-02-01T00:38:23;4.50;;;1.10;;
10442;SDS011;5269;51.146;16.986;2023-02-01T00:40:50;3.47;;;1.20;;
10442;SDS011;5269;51.146;16.986;2023-02-01T00:43:17;3.63;;;1.23;;
10442;SDS011;5269;51.146;16.986;2023-02-01T00:45:44;2.13;;;0.90;;
10442;SDS011;5269;51.146;16.986;2023-02-01T00:48:28;4.47;;;1.40;;
10442;SDS011;5269;51.146;16.986;2023-02-01T00:50:58;2.67;;;1.10;;
10442;SDS011;5269;51.146;16.986;2023-02-01T00:53:25;4.97;;;1.27;;
10442;SDS011;5269;51.146;16.986;2023-02-01T00:55:52;3.83;;;1.40;;
10442;SDS011;5269;51.146;16.986;2023-02-01T00:58:19;2.57;;;1.20;;
10442;SDS011;5269;51.146;16.986;2023-02-01T01:00:48;4.57;;;1.63;;
10442;SDS011;5269;51.146;16.986;2023-02-01T01:03:15;4.90;;;1.60;;
10442;SDS011;5269;51.146;16.986;2023-02-01T01:05:44;1.75;;;1.27;;
10442;SDS011;5269;51.146;16.986;2023-02-01T01:08:11;4.80;;;1.50;;
10442;SDS011;5269;51.146;16.986;2023-02-01T01:10:38;3.60;;;1.45;;
10442;SDS011;5269;51.146;16.986;2023-02-01T01:13:06;2.77;;;1.40;;
10442;SDS011;5269;51.146;16.986;2023-02-01T01:15:35;2.90;;;1.50;;
10442;SDS011;5269;51.146;16.986;2023-02-01T01:18:03;3.22;;;1.40;;
10442;SDS011;5269;51.146;16.986;2023-02-01T01:20:33;5.25;;;1.50;;
10442;SDS011;5269;51.146;16.986;2023-02-01T01:23:01;3.47;;;1.30;;
10442;SDS011;5269;51.146;16.986;2023-02-01T01:25:29;3.63;;;1.50;;
10442;SDS011;5269;51.146;16.986;2023-02-01T01:27:57;2.47;;;1.15;;
10442;SDS011;5269;51.146;16.986;2023-02-01T01:30:24;3.53;;;0.98;;
10442;SDS011;5269;51.146;16.986;2023-02-01T01:32:51;2.50;;;1.23;;
10442;SDS011;5269;51.146;16.986;2023-02-01T01:35:18;2.77;;;0.90;;
10442;SDS011;5269;51.146;16.986;2023-02-01T01:37:46;2.47;;;1.00;;
10442;SDS011;5269;51.146;16.986;2023-02-01T01:40:13;2.38;;;1.02;;
10442;SDS011;5269;51.146;16.986;2023-02-01T01:42:41;2.00;;;1.10;;
10442;SDS011;5269;51.146;16.986;2023-02-01T01:45:16;3.43;;;0.97;;
10442;SDS011;5269;51.146;16.986;2023-02-01T01:47:48;2.58;;;1.02;;
10442;SDS011;5269;51.146;16.986;2023-02-01T01:50:18;2.17;;;1.30;;
10442;SDS011;5269;51.146;16.986;2023-02-01T01:52:48;2.80;;;1.00;;
10442;SDS011;5269;51.146;16.986;2023-02-01T01:55:18;3.07;;;1.13;;
10442;SDS011;5269;51.146;16.986;2023-02-01T01:57:50;2.80;;;1.10;;
10442;SDS011;5269;51.146;16.986;2023-02-01T02:00:21;1.87;;;1.20;;
10442;SDS011;5269;51.146;16.986;2023-02-01T02:02:51;4.47;;;1.37;;
10442;SDS011;5269;51.146;16.986;2023-02-01T02:05:21;2.90;;;1.27;;
10442;SDS011;5269;51.146;16.986;2023-02-01T02:07:51;3.47;;;1.40;;
10442;SDS011;5269;51.146;16.986;2023-02-01T02:10:19;3.63;;;1.55;;
10442;SDS011;5269;51.146;16.986;2023-02-01T02:13:07;5.15;;;1.95;;
10442;SDS011;5269;51.146;16.986;2023-02-01T02:15:34;4.60;;;1.85;;
10442;SDS011;5269;51.146;16.986;2023-02-01T02:18:09;3.53;;;1.60;;
10442;SDS011;5269;51.146;16.986;2023-02-01T02:21:00;4.30;;;1.90;;
10442;SDS011;5269;51.146;16.986;2023-02-01T02:23:48;5.28;;;1.60;;
10442;SDS011;5269;51.146;16.986;2023-02-01T02:26:39;4.30;;;1.52;;
10442;SDS011;5269;51.146;16.986;2023-02-01T02:29:38;4.88;;;1.88;;
10442;SDS011;5269;51.146;16.986;2023-02-01T02:35:42;4.60;;;1.50;;
10442;SDS011;5269;51.146;16.986;2023-02-01T02:38:17;5.10;;;1.80;;
10442;SDS011;5269;51.146;16.986;2023-02-01T02:40:55;7.15;;;2.38;;
10442;SDS011;5269;51.146;16.986;2023-02-01T02:43:31;2.63;;;1.58;;
10442;SDS011;5269;51.146;16.986;2023-02-01T02:46:23;6.35;;;1.80;;
10442;SDS011;5269;51.146;16.986;2023-02-01T02:49:12;7.20;;;2.22;;
10442;SDS011;5269;51.146;16.986;2023-02-01T02:51:46;4.78;;;1.77;;
10442;SDS011;5269;51.146;16.986;2023-02-01T02:54:37;4.93;;;1.88;;
10442;SDS011;5269;51.146;16.986;2023-02-01T02:57:18;6.40;;;2.25;;
10442;SDS011;5269;51.146;16.986;2023-02-01T03:00:05;6.70;;;2.25;;
10442;SDS011;5269;51.146;16.986;2023-02-01T03:02:53;5.68;;;1.92;;
10442;SDS011;5269;51.146;16.986;2023-02-01T03:05:40;7.00;;;2.25;;
10442;SDS011;5269;51.146;16.986;2023-02-01T03:08:14;5.80;;;2.00;;
10442;SDS011;5269;51.146;16.986;2023-02-01T03:10:44;5.53;;;2.15;;
10442;SDS011;5269;51.146;16.986;2023-02-01T03:13:20;8.55;;;2.25;;
10442;SDS011;5269;51.146;16.986;2023-02-01T03:15:56;5.97;;;1.70;;
10442;SDS011;5269;51.146;16.986;2023-02-01T03:18:31;4.20;;;1.90;;
10442;SDS011;5269;51.146;16.986;2023-02-01T03:21:06;5.15;;;1.85;;
10442;SDS011;5269;51.146;16.986;2023-02-01T03:23:37;5.97;;;1.90;;
10442;SDS011;5269;51.146;16.986;2023-02-01T03:26:05;7.85;;;2.20;;
10442;SDS011;5269;51.146;16.986;2023-02-01T03:28:36;9.55;;;2.38;;
10442;SDS011;5269;51.146;16.986;2023-02-01T03:31:08;6.07;;;1.87;;
10442;SDS011;5269;51.146;16.986;2023-02-01T03:33:35;9.02;;;2.10;;
10442;SDS011;5269;51.146;16.986;2023-02-01T03:36:05;7.18;;;2.30;;
10442;SDS011;5269;51.146;16.986;2023-02-01T03:38:44;7.78;;;2.47;;
10442;SDS011;5269;51.146;16.986;2023-02-01T03:41:17;5.18;;;2.25;;
10442;SDS011;5269;51.146;16.986;2023-02-01T03:43:52;7.45;;;2.20;;
10442;SDS011;5269;51.146;16.986;2023-02-01T03:46:23;8.38;;;2.90;;
10442;SDS011;5269;51.146;16.986;2023-02-01T03:48:57;5.97;;;2.23;;
10442;SDS011;5269;51.146;16.986;2023-02-01T03:51:27;5.70;;;2.03;;
10442;SDS011;5269;51.146;16.986;2023-02-01T03:53:57;7.53;;;2.10;;
10442;SDS011;5269;51.146;16.986;2023-02-01T03:56:28;9.02;;;2.00;;
10442;SDS011;5269;51.146;16.986;2023-02-01T03:58:57;9.73;;;2.33;;
10442;SDS011;5269;51.146;16.986;2023-02-01T04:01:25;5.78;;;2.30;;
10442;SDS011;5269;51.146;16.986;2023-02-01T04:03:53;6.15;;;2.20;;
10442;SDS011;5269;51.146;16.986;2023-02-01T04:06:21;9.18;;;2.30;;
10442;SDS011;5269;51.146;16.986;2023-02-01T04:08:48;7.57;;;2.40;;
10442;SDS011;5269;51.146;16.986;2023-02-01T04:11:18;6.93;;;2.30;;
10442;SDS011;5269;51.146;16.986;2023-02-01T04:13:45;8.18;;;2.22;;
10442;SDS011;5269;51.146;16.986;2023-02-01T04:16:12;8.03;;;2.10;;
10442;SDS011;5269;51.146;16.986;2023-02-01T04:18:39;6.95;;;2.13;;
10442;SDS011;5269;51.146;16.986;2023-02-01T04:21:06;6.10;;;1.80;;
10442;SDS011;5269;51.146;16.986;2023-02-01T04:23:33;5.80;;;2.20;;
10442;SDS011;5269;51.146;16.986;2023-02-01T04:26:02;4.30;;;1.90;;
10442;SDS011;5269;51.146;16.986;2023-02-01T04:28:31;6.15;;;2.10;;
10442;SDS011;5269;51.146;16.986;2023-02-01T04:30:58;8.52;;;2.60;;
10442;SDS011;5269;51.146;16.986;2023-02-01T04:33:25;7.88;;;2.30;;
10442;SDS011;5269;51.146;16.986;2023-02-01T04:35:52;6.10;;;2.10;;
10442;SDS011;5269;51.146;16.986;2023-02-01T04:38:19;7.25;;;2.13;;
10442;SDS011;5269;51.146;16.986;2023-02-01T04:40:54;6.45;;;2.42;;
10442;SDS011;5269;51.146;16.986;2023-02-01T04:43:21;7.38;;;2.10;;
10442;SDS011;5269;51.146;16.986;2023-02-01T04:45:49;9.25;;;2.30;;
10442;SDS011;5269;51.146;16.986;2023-02-01T04:48:17;6.35;;;2.20;;
10442;SDS011;5269;51.146;16.986;2023-02-01T04:50:45;6.00;;;2.20;;
10442;SDS011;5269;51.146;16.986;2023-02-01T04:53:13;6.43;;;2.08;;
10442;SDS011;5269;51.146;16.986;2023-02-01T04:55:40;5.30;;;2.38;;
10442;SDS011;5269;51.146;16.986;2023-02-01T04:58:07;8.35;;;2.20;;
10442;SDS011;5269;51.146;16.986;2023-02-01T05:00:34;4.78;;;1.67;;
10442;SDS011;5269;51.146;16.986;2023-02-01T05:03:03;6.55;;;1.98;;
10442;SDS011;5269;51.146;16.986;2023-02-01T05:05:30;4.10;;;1.67;;
10442;SDS011;5269;51.146;16.986;2023-02-01T05:07:57;3.90;;;1.90;;
10442;SDS011;5269;51.146;16.986;2023-02-01T05:10:24;4.05;;;2.05;;
10442;SDS011;5269;51.146;16.986;2023-02-01T05:12:51;7.15;;;2.22;;
10442;SDS011;5269;51.146;16.986;2023-02-01T05:15:36;6.20;;;2.03;;
10442;SDS011;5269;51.146;16.986;2023-02-01T05:18:04;6.05;;;2.03;;
10442;SDS011;5269;51.146;16.986;2023-02-01T05:20:31;7.95;;;2.28;;
10442;SDS011;5269;51.146;16.986;2023-02-01T05:22:58;9.07;;;2.30;;
10442;SDS011;5269;51.146;16.986;2023-02-01T05:25:28;5.35;;;1.83;;
10442;SDS011;5269;51.146;16.986;2023-02-01T05:27:55;7.97;;;2.33;;
10442;SDS011;5269;51.146;16.986;2023-02-01T05:30:22;7.55;;;2.10;;
10442;SDS011;5269;51.146;16.986;2023-02-01T05:32:49;10.65;;;2.65;;
10442;SDS011;5269;51.146;16.986;2023-02-01T05:35:18;9.32;;;2.17;;
10442;SDS011;5269;51.146;16.986;2023-02-01T05:37:45;3.78;;;2.00;;
10442;SDS011;5269;51.146;16.986;2023-02-01T05:40:12;4.85;;;2.45;;
10442;SDS011;5269;51.146;16.986;2023-02-01T05:42:39;6.72;;;2.17;;
10442;SDS011;5269;51.146;16.986;2023-02-01T05:45:06;8.43;;;2.33;;
10442;SDS011;5269;51.146;16.986;2023-02-01T05:47:34;5.78;;;2.00;;
10442;SDS011;5269;51.146;16.986;2023-02-01T05:50:01;8.13;;;2.00;;
10442;SDS011;5269;51.146;16.986;2023-02-01T05:52:30;3.42;;;1.70;;
10442;SDS011;5269;51.146;16.986;2023-02-01T05:54:57;8.23;;;2.40;;
10442;SDS011;5269;51.146;16.986;2023-02-01T05:57:24;3.63;;;1.80;;
10442;SDS011;5269;51.146;16.986;2023-02-01T05:59:51;5.60;;;2.17;;
10442;SDS011;5269;51.146;16.986;2023-02-01T06:02:18;6.10;;;2.20;;
10442;SDS011;5269;51.146;16.986;2023-02-01T06:04:45;4.88;;;2.00;;
10442;SDS011;5269;51.146;16.986;2023-02-01T06:07:12;8.50;;;2.00;;
10442;SDS011;5269;51.146;16.986;2023-02-01T06:09:40;7.72;;;2.60;;
10442;SDS011;5269;51.146;16.986;2023-02-01T06:12:07;5.00;;;2.47;;
10442;SDS011;5269;51.146;16.986;2023-02-01T06:14:36;5.03;;;2.20;;
10442;SDS011;5269;51.146;16.986;2023-02-01T06:17:03;8.13;;;2.63;;
10442;SDS011;5269;51.146;16.986;2023-02-01T06:19:31;5.82;;;1.90;;
10442;SDS011;5269;51.146;16.986;2023-02-01T06:21:58;4.78;;;1.88;;
10442;SDS011;5269;51.146;16.986;2023-02-01T06:24:25;8.43;;;2.60;;
10442;SDS011;5269;51.146;16.986;2023-02-01T06:26:53;6.20;;;2.53;;
10442;SDS011;5269;51.146;16.986;2023-02-01T06:29:20;7.43;;;2.67;;
10442;SDS011;5269;51.146;16.986;2023-02-01T06:31:51;7.15;;;2.30;;
10442;SDS011;5269;51.146;16.986;2023-02-01T06:34:20;6.97;;;2.30;;
10442;SDS011;5269;51.146;16.986;2023-02-01T06:36:48;4.70;;;1.75;;
10442;SDS011;5269;51.146;16.986;2023-02-01T06:39:15;6.30;;;2.03;;
10442;SDS011;5269;51.146;16.986;2023-02-01T06:41:42;4.80;;;2.03;;
10442;SDS011;5269;51.146;16.986;2023-02-01T06:44:13;6.63;;;2.28;;
10442;SDS011;5269;51.146;16.986;2023-02-01T06:46:40;6.80;;;2.40;;
10442;SDS011;5269;51.146;16.986;2023-02-01T06:49:07;7.45;;;2.22;;
10442;SDS011;5269;51.146;16.986;2023-02-01T06:51:58;6.22;;;1.70;;
10442;SDS011;5269;51.146;16.986;2023-02-01T06:54:27;6.20;;;2.50;;
10442;SDS011;5269;51.146;16.986;2023-02-01T06:56:59;7.53;;;2.53;;
10442;SDS011;5269;51.146;16.986;2023-02-01T06:59:36;5.47;;;1.95;;
10442;SDS011;5269;51.146;16.986;2023-02-01T07:02:24;4.63;;;2.17;;
10442;SDS011;5269;51.146;16.986;2023-02-01T07:04:56;3.88;;;2.10;;
10442;SDS011;5269;51.146;16.986;2023-02-01T07:07:23;6.13;;;1.92;;
10442;SDS011;5269;51.146;16.986;2023-02-01T07:09:51;5.93;;;2.05;;
10442;SDS011;5269;51.146;16.986;2023-02-01T07:12:20;4.97;;;1.98;;
10442;SDS011;5269;51.146;16.986;2023-02-01T07:14:49;6.22;;;2.10;;
10442;SDS011;5269;51.146;16.986;2023-02-01T07:17:16;7.25;;;2.30;;
10442;SDS011;5269;51.146;16.986;2023-02-01T07:19:45;6.90;;;2.60;;
10442;SDS011;5269;51.146;16.986;2023-02-01T07:22:12;7.25;;;2.28;;
10442;SDS011;5269;51.146;16.986;2023-02-01T07:24:42;5.85;;;2.58;;
10442;SDS011;5269;51.146;16.986;2023-02-01T07:27:09;8.10;;;2.55;;
10442;SDS011;5269;51.146;16.986;2023-02-01T07:29:36;5.95;;;2.03;;
10442;SDS011;5269;51.146;16.986;2023-02-01T07:32:07;3.42;;;1.90;;
10442;SDS011;5269;51.146;16.986;2023-02-01T07:34:36;6.65;;;2.50;;
10442;SDS011;5269;51.146;16.986;2023-02-01T07:37:06;5.75;;;2.38;;
10442;SDS011;5269;51.146;16.986;2023-02-01T07:39:34;8.10;;;2.58;;
10442;SDS011;5269;51.146;16.986;2023-02-01T07:42:01;5.43;;;2.28;;
10442;SDS011;5269;51.146;16.986;2023-02-01T07:44:29;6.90;;;2.22;;
10442;SDS011;5269;51.146;16.986;2023-02-01T07:46:58;5.45;;;1.90;;
10442;SDS011;5269;51.146;16.986;2023-02-01T07:49:26;4.55;;;2.40;;
10442;SDS011;5269;51.146;16.986;2023-02-01T07:51:54;6.00;;;2.05;;
10442;SDS011;5269;51.146;16.986;2023-02-01T07:54:22;3.47;;;1.90;;
10442;SDS011;5269;51.146;16.986;2023-02-01T07:56:49;7.18;;;2.75;;
10442;SDS011;5269;51.146;16.986;2023-02-01T07:59:22;8.20;;;3.03;;
10442;SDS011;5269;51.146;16.986;2023-02-01T08:01:49;5.55;;;2.70;;
10442;SDS011;5269;51.146;16.986;2023-02-01T08:04:16;5.93;;;2.50;;
10442;SDS011;5269;51.146;16.986;2023-02-01T08:06:45;7.07;;;2.47;;
10442;SDS011;5269;51.146;16.986;2023-02-01T08:09:12;5.93;;;2.45;;
10442;SDS011;5269;51.146;16.986;2023-02-01T08:11:40;7.35;;;2.83;;
10442;SDS011;5269;51.146;16.986;2023-02-01T08:14:07;6.50;;;2.42;;
10442;SDS011;5269;51.146;16.986;2023-02-01T08:16:36;5.50;;;2.10;;
10442;SDS011;5269;51.146;16.986;2023-02-01T08:19:04;5.95;;;2.22;;
10442;SDS011;5269;51.146;16.986;2023-02-01T08:24:47;8.02;;;2.60;;
10442;SDS011;5269;51.146;16.986;2023-02-01T08:27:14;7.72;;;2.50;;
10442;SDS011;5269;51.146;16.986;2023-02-01T08:29:41;6.55;;;2.67;;
10442;SDS011;5269;51.146;16.986;2023-02-01T08:32:08;6.60;;;2.85;;
10442;SDS011;5269;51.146;16.986;2023-02-01T08:34:37;9.90;;;2.88;;
10442;SDS011;5269;51.146;16.986;2023-02-01T08:37:24;6.07;;;2.08;;
10442;SDS011;5269;51.146;16.986;2023-02-01T08:40:01;8.35;;;2.60;;
10442;SDS011;5269;51.146;16.986;2023-02-01T08:42:29;6.85;;;2.42;;
10442;SDS011;5269;51.146;16.986;2023-02-01T08:48:26;6.70;;;2.53;;
10442;SDS011;5269;51.146;16.986;2023-02-01T08:51:00;7.70;;;2.58;;
10442;SDS011;5269;51.146;16.986;2023-02-01T08:53:30;7.50;;;2.60;;
10442;SDS011;5269;51.146;16.986;2023-02-01T08:56:00;7.90;;;2.33;;
10442;SDS011;5269;51.146;16.986;2023-02-01T08:58:31;5.57;;;2.70;;
10442;SDS011;5269;51.146;16.986;2023-02-01T09:01:02;7.68;;;2.65;;
10442;SDS011;5269;51.146;16.986;2023-02-01T09:03:30;11.77;;;2.63;;
10442;SDS011;5269;51.146;16.986;2023-02-01T09:06:01;5.60;;;2.35;;
10442;SDS011;5269;51.146;16.986;2023-02-01T09:08:29;7.32;;;2.70;;
10442;SDS011;5269;51.146;16.986;2023-02-01T09:11:02;9.18;;;2.38;;
10442;SDS011;5269;51.146;16.986;2023-02-01T09:13:33;6.00;;;2.38;;
10442;SDS011;5269;51.146;16.986;2023-02-01T09:16:01;8.35;;;2.65;;
10442;SDS011;5269;51.146;16.986;2023-02-01T09:18:28;7.28;;;2.65;;
10442;SDS011;5269;51.146;16.986;2023-02-01T09:20:55;5.25;;;2.60;;
10442;SDS011;5269;51.146;16.986;2023-02-01T09:23:22;4.97;;;2.65;;
10442;SDS011;5269;51.146;16.986;2023-02-01T09:25:52;4.50;;;2.30;;
10442;SDS011;5269;51.146;16.986;2023-02-01T09:30:54;3.88;;;2.25;;
10442;SDS011;5269;51.146;16.986;2023-02-01T09:33:24;5.32;;;2.33;;
10442;SDS011;5269;51.146;16.986;2023-02-01T09:35:54;5.60;;;2.28;;
10442;SDS011;5269;51.146;16.986;2023-02-01T09:41:10;2.83;;;2.00;;
10442;SDS011;5269;51.146;16.986;2023-02-01T09:44:10;5.40;;;2.38;;
10442;SDS011;5269;51.146;16.986;2023-02-01T09:46:57;3.95;;;2.17;;
10442;SDS011;5269;51.146;16.986;2023-02-01T09:49:33;2.42;;;1.85;;
10442;SDS011;5269;51.146;16.986;2023-02-01T09:52:10;5.13;;;1.83;;
10442;SDS011;5269;51.146;16.986;2023-02-01T09:54:40;3.92;;;2.53;;
10442;SDS011;5269;51.146;16.986;2023-02-01T09:57:13;3.03;;;1.88;;
10442;SDS011;5269;51.146;16.986;2023-02-01T09:59:52;4.45;;;1.80;;
10442;SDS011;5269;51.146;16.986;2023-02-01T10:02:25;3.30;;;1.92;;
10442;SDS011;5269;51.146;16.986;2023-02-01T10:04:56;4.72;;;2.20;;
10442;SDS011;5269;51.146;16.986;2023-02-01T10:07:27;2.28;;;1.80;;
10442;SDS011;5269;51.146;16.986;2023-02-01T10:10:05;4.03;;;2.20;;
10442;SDS011;5269;51.146;16.986;2023-02-01T10:15:42;4.88;;;2.10;;
10442;SDS011;5269;51.146;16.986;2023-02-01T10:18:24;3.63;;;2.08;;
10442;SDS011;5269;51.146;16.986;2023-02-01T10:21:02;2.78;;;1.73;;
10442;SDS011;5269;51.146;16.986;2023-02-01T10:23:50;5.22;;;2.03;;
10442;SDS011;5269;51.146;16.986;2023-02-01T10:26:39;4.57;;;2.13;;
10442;SDS011;5269;51.146;16.986;2023-02-01T10:29:12;3.25;;;1.85;;
10442;SDS011;5269;51.146;16.986;2023-02-01T10:31:44;4.28;;;2.10;;
10442;SDS011;5269;51.146;16.986;2023-02-01T10:34:14;3.30;;;1.67;;
10442;SDS011;5269;51.146;16.986;2023-02-01T10:36:50;4.78;;;2.10;;
10442;SDS011;5269;51.146;16.986;2023-02-01T10:39:22;4.40;;;2.38;;
10442;SDS011;5269;51.146;16.986;2023-02-01T10:41:50;4.32;;;2.10;;
10442;SDS011;5269;51.146;16.986;2023-02-01T10:44:18;5.82;;;2.30;;
10442;SDS011;5269;51.146;16.986;2023-02-01T10:46:49;5.05;;;2.35;;
10442;SDS011;5269;51.146;16.986;2023-02-01T10:49:18;4.40;;;1.85;;
10442;SDS011;5269;51.146;16.986;2023-02-01T10:51:59;6.05;;;2.70;;
10442;SDS011;5269;51.146;16.986;2023-02-01T10:54:37;6.18;;;2.20;;
10442;SDS011;5269;51.146;16.986;2023-02-01T10:57:07;5.25;;;2.55;;
10442;SDS011;5269;51.146;16.986;2023-02-01T10:59:36;3.60;;;1.90;;
10442;SDS011;5269;51.146;16.986;2023-02-01T11:02:16;3.95;;;2.25;;
10442;SDS011;5269;51.146;16.986;2023-02-01T11:04:57;3.90;;;2.40;;
10442;SDS011;5269;51.146;16.986;2023-02-01T11:07:27;5.35;;;2.38;;
10442;SDS011;5269;51.146;16.986;2023-02-01T11:09:55;8.48;;;2.60;;
10442;SDS011;5269;51.146;16.986;2023-02-01T11:12:30;5.22;;;2.63;;
10442;SDS011;5269;51.146;16.986;2023-02-01T11:15:02;4.38;;;2.47;;
10442;SDS011;5269;51.146;16.986;2023-02-01T11:17:46;6.88;;;2.83;;
10442;SDS011;5269;51.146;16.986;2023-02-01T11:20:17;3.50;;;2.20;;
10442;SDS011;5269;51.146;16.986;2023-02-01T11:22:46;3.35;;;2.03;;
10442;SDS011;5269;51.146;16.986;2023-02-01T11:25:16;3.80;;;2.00;;
10442;SDS011;5269;51.146;16.986;2023-02-01T11:27:44;3.85;;;2.20;;
10442;SDS011;5269;51.146;16.986;2023-02-01T11:30:15;3.15;;;2.00;;
10442;SDS011;5269;51.146;16.986;2023-02-01T11:32:45;3.22;;;1.83;;
10442;SDS011;5269;51.146;16.986;2023-02-01T11:35:15;3.50;;;2.08;;
10442;SDS011;5269;51.146;16.986;2023-02-01T11:37:48;3.92;;;2.00;;
10442;SDS011;5269;51.146;16.986;2023-02-01T11:40:23;3.03;;;1.75;;
10442;SDS011;5269;51.146;16.986;2023-02-01T11:42:54;4.25;;;1.80;;
10442;SDS011;5269;51.146;16.986;2023-02-01T11:45:26;2.88;;;1.73;;
10442;SDS011;5269;51.146;16.986;2023-02-01T11:48:00;2.20;;;1.70;;
10442;SDS011;5269;51.146;16.986;2023-02-01T11:50:30;3.92;;;2.00;;
10442;SDS011;5269;51.146;16.986;2023-02-01T11:53:11;5.60;;;1.98;;
10442;SDS011;5269;51.146;16.986;2023-02-01T11:55:53;4.68;;;2.35;;
10442;SDS011;5269;51.146;16.986;2023-02-01T12:02:01;2.67;;;2.13;;
10442;SDS011;5269;51.146;16.986;2023-02-01T12:04:48;3.15;;;2.05;;
10442;SDS011;5269;51.146;16.986;2023-02-01T12:07:28;5.97;;;2.38;;
10442;SDS011;5269;51.146;16.986;2023-02-01T12:10:11;3.42;;;2.20;;
10442;SDS011;5269;51.146;16.986;2023-02-01T12:12:49;3.40;;;2.00;;
10442;SDS011;5269;51.146;16.986;2023-02-01T12:15:27;2.33;;;1.90;;
10442;SDS011;5269;51.146;16.986;2023-02-01T12:21:22;4.03;;;2.15;;
10442;SDS011;5269;51.146;16.986;2023-02-01T12:24:10;3.28;;;2.10;;
10442;SDS011;5269;51.146;16.986;2023-02-01T12:26:55;4.15;;;2.17;;
10442;SDS011;5269;51.146;16.986;2023-02-01T12:29:37;4.30;;;2.05;;
10442;SDS011;5269;51.146;16.986;2023-02-01T12:32:20;3.30;;;2.10;;
10442;SDS011;5269;51.146;16.986;2023-02-01T12:35:06;4.30;;;1.92;;
10442;SDS011;5269;51.146;16.986;2023-02-01T12:37:54;2.72;;;1.92;;
10442;SDS011;5269;51.146;16.986;2023-02-01T12:40:37;2.65;;;2.00;;
10442;SDS011;5269;51.146;16.986;2023-02-01T12:43:21;2.25;;;1.70;;
10442;SDS011;5269;51.146;16.986;2023-02-01T12:45:56;2.78;;;1.95;;
10442;SDS011;5269;51.146;16.986;2023-02-01T12:48:28;3.17;;;2.00;;
10442;SDS011;5269;51.146;16.986;2023-02-01T12:50:59;2.10;;;1.88;;
10442;SDS011;5269;51.146;16.986;2023-02-01T12:53:33;3.00;;;1.98;;
10442;SDS011;5269;51.146;16.986;2023-02-01T12:56:19;2.45;;;1.98;;
10442;SDS011;5269;51.146;16.986;2023-02-01T12:58:52;3.45;;;1.83;;
10442;SDS011;5269;51.146;16.986;2023-02-01T13:01:26;2.97;;;2.20;;
10442;SDS011;5269;51.146;16.986;2023-02-01T13:03:59;2.80;;;2.10;;
10442;SDS011;5269;51.146;16.986;2023-02-01T13:06:35;3.05;;;2.00;;
10442;SDS011;5269;51.146;16.986;2023-02-01T13:11:53;3.10;;;2.20;;
10442;SDS011;5269;51.146;16.986;2023-02-01T13:14:26;2.47;;;2.28;;
10442;SDS011;5269;51.146;16.986;2023-02-01T13:16:57;4.10;;;2.03;;
10442;SDS011;5269;51.146;16.986;2023-02-01T13:19:35;2.72;;;1.77;;
10442;SDS011;5269;51.146;16.986;2023-02-01T13:22:50;3.70;;;2.00;;
10442;SDS011;5269;51.146;16.986;2023-02-01T13:28:57;2.90;;;1.48;;
10442;SDS011;5269;51.146;16.986;2023-02-01T14:58:41;4.57;;;2.33;;
10442;SDS011;5269;51.146;16.986;2023-02-01T15:01:16;4.88;;;2.13;;
10442;SDS011;5269;51.146;16.986;2023-02-01T15:10:14;3.78;;;2.05;;
10442;SDS011;5269;51.146;16.986;2023-02-01T15:13:24;5.57;;;2.28;;
10442;SDS011;5269;51.146;16.986;2023-02-01T15:21:55;4.65;;;1.75;;
10442;SDS011;5269;51.146;16.986;2023-02-01T15:24:42;2.95;;;1.88;;
10442;SDS011;5269;51.146;16.986;2023-02-01T15:27:12;4.40;;;2.15;;
10442;SDS011;5269;51.146;16.986;2023-02-01T15:29:47;4.53;;;2.10;;
10442;SDS011;5269;51.146;16.986;2023-02-01T15:32:28;3.17;;;1.90;;
10442;SDS011;5269;51.146;16.986;2023-02-01T15:34:55;3.97;;;2.05;;
10442;SDS011;5269;51.146;16.986;2023-02-01T16:55:15;2.90;;;2.42;;
10442;SDS011;5269;51.146;16.986;2023-02-01T21:52:10;2.07;;;1.40;;
10442;SDS011;5269;51.146;16.986;2023-02-01T22:01:26;2.93;;;1.90;;
10442;SDS011;5269;51.146;16.986;2023-02-01T22:28:14;3.70;;;2.13;;
10442;SDS011;5269;51.146;16.986;2023-02-01T22:41:01;1.77;;;1.57;;
